sensor_id;sensor_type;location;lat;lon;timestamp;pressure;altitude;pressure_sealevel;temperature
12854;BMP180;6495;51.808;7.478;2022-10-22T00:01:08;100518.00;;;14.80
12854;BMP180;6495;51.808;7.478;2022-10-22T00:03:36;100518.00;;;14.80
12854;BMP180;6495;51.808;7.478;2022-10-22T00:06:05;100527.00;;;14.80
12854;BMP180;6495;51.808;7.478;2022-10-22T00:08:33;100527.00;;;14.80
12854;BMP180;6495;51.808;7.478;2022-10-22T00:11:09;100528.00;;;14.80
12854;BMP180;6495;51.808;7.478;2022-10-22T00:13:37;100520.00;;;14.70
12854;BMP180;6495;51.808;7.478;2022-10-22T00:16:06;100522.00;;;14.70
12854;BMP180;6495;51.808;7.478;2022-10-22T00:18:35;100521.00;;;14.70
12854;BMP180;6495;51.808;7.478;2022-10-22T00:21:05;100527.00;;;14.70
12854;BMP180;6495;51.808;7.478;2022-10-22T00:23:34;100528.00;;;14.70
12854;BMP180;6495;51.808;7.478;2022-10-22T00:26:02;100526.00;;;14.70
12854;BMP180;6495;51.808;7.478;2022-10-22T00:28:30;100530.00;;;14.70
12854;BMP180;6495;51.808;7.478;2022-10-22T00:30:59;100532.00;;;14.70
12854;BMP180;6495;51.808;7.478;2022-10-22T00:33:29;100537.00;;;14.60
12854;BMP180;6495;51.808;7.478;2022-10-22T00:35:57;100541.00;;;14.60
12854;BMP180;6495;51.808;7.478;2022-10-22T00:38:25;100533.00;;;14.60
12854;BMP180;6495;51.808;7.478;2022-10-22T00:40:54;100534.00;;;14.60
12854;BMP180;6495;51.808;7.478;2022-10-22T00:43:22;100540.00;;;14.50
12854;BMP180;6495;51.808;7.478;2022-10-22T00:45:50;100542.00;;;14.50
12854;BMP180;6495;51.808;7.478;2022-10-22T00:48:22;100549.00;;;14.50
12854;BMP180;6495;51.808;7.478;2022-10-22T00:50:57;100549.00;;;14.50
12854;BMP180;6495;51.808;7.478;2022-10-22T00:53:31;100538.00;;;14.50
12854;BMP180;6495;51.808;7.478;2022-10-22T00:56:02;100542.00;;;14.50
12854;BMP180;6495;51.808;7.478;2022-10-22T00:58:34;100550.00;;;14.50
12854;BMP180;6495;51.808;7.478;2022-10-22T01:01:05;100544.00;;;14.50
12854;BMP180;6495;51.808;7.478;2022-10-22T01:03:35;100553.00;;;14.50
12854;BMP180;6495;51.808;7.478;2022-10-22T01:06:05;100555.00;;;14.50
12854;BMP180;6495;51.808;7.478;2022-10-22T01:08:42;100543.00;;;14.50
12854;BMP180;6495;51.808;7.478;2022-10-22T01:11:25;100531.00;;;14.50
12854;BMP180;6495;51.808;7.478;2022-10-22T01:14:04;100528.00;;;14.50
12854;BMP180;6495;51.808;7.478;2022-10-22T01:16:42;100531.00;;;14.60
12854;BMP180;6495;51.808;7.478;2022-10-22T01:19:49;100536.00;;;14.60
12854;BMP180;6495;51.808;7.478;2022-10-22T01:22:31;100537.00;;;14.50
12854;BMP180;6495;51.808;7.478;2022-10-22T01:25:07;100530.00;;;14.50
12854;BMP180;6495;51.808;7.478;2022-10-22T01:27:52;100541.00;;;14.50
12854;BMP180;6495;51.808;7.478;2022-10-22T01:30:25;100537.00;;;14.50
12854;BMP180;6495;51.808;7.478;2022-10-22T01:32:57;100534.00;;;14.50
12854;BMP180;6495;51.808;7.478;2022-10-22T01:35:30;100532.00;;;14.50
12854;BMP180;6495;51.808;7.478;2022-10-22T01:38:08;100531.00;;;14.50
12854;BMP180;6495;51.808;7.478;2022-10-22T01:40:39;100519.00;;;14.60
12854;BMP180;6495;51.808;7.478;2022-10-22T01:43:10;100528.00;;;14.50
12854;BMP180;6495;51.808;7.478;2022-10-22T01:45:44;100515.00;;;14.60
12854;BMP180;6495;51.808;7.478;2022-10-22T01:48:33;100518.00;;;14.60
12854;BMP180;6495;51.808;7.478;2022-10-22T01:51:35;100525.00;;;14.70
12854;BMP180;6495;51.808;7.478;2022-10-22T01:54:20;100519.00;;;14.70
12854;BMP180;6495;51.808;7.478;2022-10-22T01:57:04;100519.00;;;14.60
12854;BMP180;6495;51.808;7.478;2022-10-22T01:59:49;100521.00;;;14.60
12854;BMP180;6495;51.808;7.478;2022-10-22T02:02:33;100514.00;;;14.50
12854;BMP180;6495;51.808;7.478;2022-10-22T02:05:11;100501.00;;;14.50
12854;BMP180;6495;51.808;7.478;2022-10-22T02:07:45;100509.00;;;14.40
12854;BMP180;6495;51.808;7.478;2022-10-22T02:10:16;100489.00;;;14.40
12854;BMP180;6495;51.808;7.478;2022-10-22T02:12:49;100496.00;;;14.40
12854;BMP180;6495;51.808;7.478;2022-10-22T02:15:22;100507.00;;;14.40
12854;BMP180;6495;51.808;7.478;2022-10-22T02:17:56;100496.00;;;14.40
12854;BMP180;6495;51.808;7.478;2022-10-22T02:20:28;100506.00;;;14.40
12854;BMP180;6495;51.808;7.478;2022-10-22T02:22:57;100497.00;;;14.40
12854;BMP180;6495;51.808;7.478;2022-10-22T02:25:31;100495.00;;;14.40
12854;BMP180;6495;51.808;7.478;2022-10-22T02:28:11;100506.00;;;14.50
12854;BMP180;6495;51.808;7.478;2022-10-22T02:30:45;100506.00;;;14.50
12854;BMP180;6495;51.808;7.478;2022-10-22T02:33:20;100498.00;;;14.50
12854;BMP180;6495;51.808;7.478;2022-10-22T02:35:51;100501.00;;;14.50
12854;BMP180;6495;51.808;7.478;2022-10-22T02:38:20;100503.00;;;14.50
12854;BMP180;6495;51.808;7.478;2022-10-22T02:40:49;100504.00;;;14.50
12854;BMP180;6495;51.808;7.478;2022-10-22T02:43:18;100498.00;;;14.50
12854;BMP180;6495;51.808;7.478;2022-10-22T02:45:46;100498.00;;;14.50
12854;BMP180;6495;51.808;7.478;2022-10-22T02:48:15;100511.00;;;14.50
12854;BMP180;6495;51.808;7.478;2022-10-22T02:50:43;100507.00;;;14.50
12854;BMP180;6495;51.808;7.478;2022-10-22T02:53:11;100510.00;;;14.50
12854;BMP180;6495;51.808;7.478;2022-10-22T02:55:39;100520.00;;;14.50
12854;BMP180;6495;51.808;7.478;2022-10-22T02:58:07;100511.00;;;14.40
12854;BMP180;6495;51.808;7.478;2022-10-22T03:00:35;100514.00;;;14.40
12854;BMP180;6495;51.808;7.478;2022-10-22T03:03:03;100517.00;;;14.40
12854;BMP180;6495;51.808;7.478;2022-10-22T03:05:32;100519.00;;;14.30
12854;BMP180;6495;51.808;7.478;2022-10-22T03:08:00;100520.00;;;14.30
12854;BMP180;6495;51.808;7.478;2022-10-22T03:10:28;100525.00;;;14.30
12854;BMP180;6495;51.808;7.478;2022-10-22T03:12:56;100520.00;;;14.30
12854;BMP180;6495;51.808;7.478;2022-10-22T03:15:24;100518.00;;;14.30
12854;BMP180;6495;51.808;7.478;2022-10-22T03:17:57;100517.00;;;14.30
12854;BMP180;6495;51.808;7.478;2022-10-22T03:20:25;100529.00;;;14.30
12854;BMP180;6495;51.808;7.478;2022-10-22T03:22:55;100523.00;;;14.30
12854;BMP180;6495;51.808;7.478;2022-10-22T03:25:26;100523.00;;;14.30
12854;BMP180;6495;51.808;7.478;2022-10-22T03:28:02;100522.00;;;14.30
12854;BMP180;6495;51.808;7.478;2022-10-22T03:30:31;100519.00;;;14.30
12854;BMP180;6495;51.808;7.478;2022-10-22T03:32:59;100513.00;;;14.40
12854;BMP180;6495;51.808;7.478;2022-10-22T03:35:27;100519.00;;;14.40
12854;BMP180;6495;51.808;7.478;2022-10-22T03:37:59;100524.00;;;14.40
12854;BMP180;6495;51.808;7.478;2022-10-22T03:40:28;100529.00;;;14.40
12854;BMP180;6495;51.808;7.478;2022-10-22T03:42:57;100525.00;;;14.50
12854;BMP180;6495;51.808;7.478;2022-10-22T03:45:25;100529.00;;;14.50
12854;BMP180;6495;51.808;7.478;2022-10-22T03:47:53;100533.00;;;14.50
12854;BMP180;6495;51.808;7.478;2022-10-22T03:50:21;100534.00;;;14.40
12854;BMP180;6495;51.808;7.478;2022-10-22T03:52:49;100531.00;;;14.50
12854;BMP180;6495;51.808;7.478;2022-10-22T03:55:20;100539.00;;;14.40
12854;BMP180;6495;51.808;7.478;2022-10-22T03:57:48;100535.00;;;14.40
12854;BMP180;6495;51.808;7.478;2022-10-22T04:00:16;100536.00;;;14.40
12854;BMP180;6495;51.808;7.478;2022-10-22T04:02:44;100534.00;;;14.40
12854;BMP180;6495;51.808;7.478;2022-10-22T04:05:12;100535.00;;;14.40
12854;BMP180;6495;51.808;7.478;2022-10-22T04:07:45;100543.00;;;14.30
12854;BMP180;6495;51.808;7.478;2022-10-22T04:10:13;100546.00;;;14.20
12854;BMP180;6495;51.808;7.478;2022-10-22T04:12:46;100551.00;;;14.20
12854;BMP180;6495;51.808;7.478;2022-10-22T04:15:14;100547.00;;;14.10
12854;BMP180;6495;51.808;7.478;2022-10-22T04:17:42;100554.00;;;14.10
12854;BMP180;6495;51.808;7.478;2022-10-22T04:20:10;100539.00;;;14.00
12854;BMP180;6495;51.808;7.478;2022-10-22T04:22:38;100550.00;;;14.00
12854;BMP180;6495;51.808;7.478;2022-10-22T04:25:07;100551.00;;;14.00
12854;BMP180;6495;51.808;7.478;2022-10-22T04:27:35;100545.00;;;14.00
12854;BMP180;6495;51.808;7.478;2022-10-22T04:30:07;100548.00;;;14.00
12854;BMP180;6495;51.808;7.478;2022-10-22T04:32:35;100557.00;;;14.00
12854;BMP180;6495;51.808;7.478;2022-10-22T04:35:04;100560.00;;;13.90
12854;BMP180;6495;51.808;7.478;2022-10-22T04:37:32;100557.00;;;13.90
12854;BMP180;6495;51.808;7.478;2022-10-22T04:40:00;100567.00;;;13.90
12854;BMP180;6495;51.808;7.478;2022-10-22T04:42:28;100567.00;;;13.90
12854;BMP180;6495;51.808;7.478;2022-10-22T04:44:56;100561.00;;;13.90
12854;BMP180;6495;51.808;7.478;2022-10-22T04:47:25;100569.00;;;13.90
12854;BMP180;6495;51.808;7.478;2022-10-22T04:49:53;100573.00;;;13.90
12854;BMP180;6495;51.808;7.478;2022-10-22T04:52:21;100568.00;;;13.90
12854;BMP180;6495;51.808;7.478;2022-10-22T04:54:49;100563.00;;;13.90
12854;BMP180;6495;51.808;7.478;2022-10-22T04:57:17;100556.00;;;13.90
12854;BMP180;6495;51.808;7.478;2022-10-22T04:59:45;100559.00;;;13.90
12854;BMP180;6495;51.808;7.478;2022-10-22T05:02:12;100559.00;;;13.90
12854;BMP180;6495;51.808;7.478;2022-10-22T05:04:44;100559.00;;;14.00
12854;BMP180;6495;51.808;7.478;2022-10-22T05:07:12;100561.00;;;14.00
12854;BMP180;6495;51.808;7.478;2022-10-22T05:09:40;100564.00;;;14.00
12854;BMP180;6495;51.808;7.478;2022-10-22T05:12:08;100566.00;;;14.00
12854;BMP180;6495;51.808;7.478;2022-10-22T05:14:36;100563.00;;;14.00
12854;BMP180;6495;51.808;7.478;2022-10-22T05:17:10;100562.00;;;13.90
12854;BMP180;6495;51.808;7.478;2022-10-22T05:19:38;100566.00;;;13.90
12854;BMP180;6495;51.808;7.478;2022-10-22T05:22:07;100561.00;;;13.80
12854;BMP180;6495;51.808;7.478;2022-10-22T05:24:35;100563.00;;;13.80
12854;BMP180;6495;51.808;7.478;2022-10-22T05:27:03;100577.00;;;13.90
12854;BMP180;6495;51.808;7.478;2022-10-22T05:29:31;100570.00;;;13.90
12854;BMP180;6495;51.808;7.478;2022-10-22T05:31:59;100576.00;;;13.80
12854;BMP180;6495;51.808;7.478;2022-10-22T05:34:27;100569.00;;;13.80
12854;BMP180;6495;51.808;7.478;2022-10-22T05:36:55;100581.00;;;13.80
12854;BMP180;6495;51.808;7.478;2022-10-22T05:39:25;100591.00;;;13.80
12854;BMP180;6495;51.808;7.478;2022-10-22T05:41:53;100587.00;;;13.70
12854;BMP180;6495;51.808;7.478;2022-10-22T05:44:21;100596.00;;;13.80
12854;BMP180;6495;51.808;7.478;2022-10-22T05:46:49;100604.00;;;13.70
12854;BMP180;6495;51.808;7.478;2022-10-22T05:49:19;100599.00;;;13.70
12854;BMP180;6495;51.808;7.478;2022-10-22T05:51:50;100596.00;;;13.70
12854;BMP180;6495;51.808;7.478;2022-10-22T05:54:19;100604.00;;;13.70
12854;BMP180;6495;51.808;7.478;2022-10-22T05:56:49;100604.00;;;13.70
12854;BMP180;6495;51.808;7.478;2022-10-22T05:59:17;100605.00;;;13.70
12854;BMP180;6495;51.808;7.478;2022-10-22T06:01:45;100606.00;;;13.80
12854;BMP180;6495;51.808;7.478;2022-10-22T06:04:13;100607.00;;;13.80
12854;BMP180;6495;51.808;7.478;2022-10-22T06:06:46;100609.00;;;13.80
12854;BMP180;6495;51.808;7.478;2022-10-22T06:09:21;100610.00;;;13.80
12854;BMP180;6495;51.808;7.478;2022-10-22T06:11:52;100617.00;;;13.70
12854;BMP180;6495;51.808;7.478;2022-10-22T06:14:20;100617.00;;;13.70
12854;BMP180;6495;51.808;7.478;2022-10-22T06:16:49;100625.00;;;13.70
12854;BMP180;6495;51.808;7.478;2022-10-22T06:19:20;100630.00;;;13.70
12854;BMP180;6495;51.808;7.478;2022-10-22T06:21:49;100629.00;;;13.60
12854;BMP180;6495;51.808;7.478;2022-10-22T06:24:16;100631.00;;;13.60
12854;BMP180;6495;51.808;7.478;2022-10-22T06:26:48;100633.00;;;13.60
12854;BMP180;6495;51.808;7.478;2022-10-22T06:29:17;100644.00;;;13.60
12854;BMP180;6495;51.808;7.478;2022-10-22T06:31:45;100639.00;;;13.60
12854;BMP180;6495;51.808;7.478;2022-10-22T06:34:14;100640.00;;;13.60
12854;BMP180;6495;51.808;7.478;2022-10-22T06:36:45;100650.00;;;13.60
12854;BMP180;6495;51.808;7.478;2022-10-22T06:39:15;100656.00;;;13.60
12854;BMP180;6495;51.808;7.478;2022-10-22T06:41:44;100647.00;;;13.60
12854;BMP180;6495;51.808;7.478;2022-10-22T06:44:14;100659.00;;;13.60
12854;BMP180;6495;51.808;7.478;2022-10-22T06:46:44;100654.00;;;13.60
12854;BMP180;6495;51.808;7.478;2022-10-22T06:49:14;100661.00;;;13.60
12854;BMP180;6495;51.808;7.478;2022-10-22T06:51:43;100664.00;;;13.70
12854;BMP180;6495;51.808;7.478;2022-10-22T06:54:11;100660.00;;;13.70
12854;BMP180;6495;51.808;7.478;2022-10-22T06:56:39;100673.00;;;13.70
12854;BMP180;6495;51.808;7.478;2022-10-22T06:59:07;100670.00;;;13.70
12854;BMP180;6495;51.808;7.478;2022-10-22T07:01:36;100668.00;;;13.80
12854;BMP180;6495;51.808;7.478;2022-10-22T07:04:07;100679.00;;;13.80
12854;BMP180;6495;51.808;7.478;2022-10-22T07:06:35;100679.00;;;13.90
12854;BMP180;6495;51.808;7.478;2022-10-22T07:09:05;100683.00;;;13.90
12854;BMP180;6495;51.808;7.478;2022-10-22T07:11:39;100698.00;;;13.90
12854;BMP180;6495;51.808;7.478;2022-10-22T07:14:09;100703.00;;;14.00
12854;BMP180;6495;51.808;7.478;2022-10-22T07:16:37;100709.00;;;14.00
12854;BMP180;6495;51.808;7.478;2022-10-22T07:19:09;100711.00;;;14.00
12854;BMP180;6495;51.808;7.478;2022-10-22T07:21:37;100714.00;;;14.00
12854;BMP180;6495;51.808;7.478;2022-10-22T07:24:06;100708.00;;;14.00
12854;BMP180;6495;51.808;7.478;2022-10-22T07:26:35;100714.00;;;14.10
12854;BMP180;6495;51.808;7.478;2022-10-22T07:29:03;100714.00;;;14.10
12854;BMP180;6495;51.808;7.478;2022-10-22T07:31:31;100721.00;;;14.10
12854;BMP180;6495;51.808;7.478;2022-10-22T07:33:59;100724.00;;;14.20
12854;BMP180;6495;51.808;7.478;2022-10-22T07:36:28;100730.00;;;14.20
12854;BMP180;6495;51.808;7.478;2022-10-22T07:38:58;100729.00;;;14.30
12854;BMP180;6495;51.808;7.478;2022-10-22T07:41:28;100740.00;;;14.40
12854;BMP180;6495;51.808;7.478;2022-10-22T07:43:57;100742.00;;;14.40
12854;BMP180;6495;51.808;7.478;2022-10-22T07:46:25;100749.00;;;14.50
12854;BMP180;6495;51.808;7.478;2022-10-22T07:48:54;100748.00;;;14.50
12854;BMP180;6495;51.808;7.478;2022-10-22T07:51:22;100749.00;;;14.50
12854;BMP180;6495;51.808;7.478;2022-10-22T07:53:51;100749.00;;;14.50
12854;BMP180;6495;51.808;7.478;2022-10-22T07:56:19;100743.00;;;14.60
12854;BMP180;6495;51.808;7.478;2022-10-22T07:58:47;100748.00;;;14.60
12854;BMP180;6495;51.808;7.478;2022-10-22T08:01:15;100769.00;;;14.70
12854;BMP180;6495;51.808;7.478;2022-10-22T08:03:44;100769.00;;;14.70
12854;BMP180;6495;51.808;7.478;2022-10-22T08:06:13;100767.00;;;14.80
12854;BMP180;6495;51.808;7.478;2022-10-22T08:08:41;100764.00;;;14.80
12854;BMP180;6495;51.808;7.478;2022-10-22T08:11:13;100763.00;;;14.90
12854;BMP180;6495;51.808;7.478;2022-10-22T08:13:41;100765.00;;;15.00
12854;BMP180;6495;51.808;7.478;2022-10-22T08:16:12;100767.00;;;15.20
12854;BMP180;6495;51.808;7.478;2022-10-22T08:18:40;100771.00;;;15.30
12854;BMP180;6495;51.808;7.478;2022-10-22T08:21:08;100773.00;;;15.40
12854;BMP180;6495;51.808;7.478;2022-10-22T08:23:37;100769.00;;;15.60
12854;BMP180;6495;51.808;7.478;2022-10-22T08:26:05;100783.00;;;15.70
12854;BMP180;6495;51.808;7.478;2022-10-22T08:28:34;100781.00;;;15.90
12854;BMP180;6495;51.808;7.478;2022-10-22T08:31:04;100791.00;;;15.90
12854;BMP180;6495;51.808;7.478;2022-10-22T08:33:33;100792.00;;;16.00
12854;BMP180;6495;51.808;7.478;2022-10-22T08:36:01;100790.00;;;16.10
12854;BMP180;6495;51.808;7.478;2022-10-22T08:38:29;100801.00;;;16.10
12854;BMP180;6495;51.808;7.478;2022-10-22T08:41:07;100797.00;;;16.30
12854;BMP180;6495;51.808;7.478;2022-10-22T08:44:09;100795.00;;;16.40
12854;BMP180;6495;51.808;7.478;2022-10-22T08:47:03;100799.00;;;16.40
12854;BMP180;6495;51.808;7.478;2022-10-22T08:49:41;100800.00;;;16.50
12854;BMP180;6495;51.808;7.478;2022-10-22T08:52:13;100802.00;;;16.50
12854;BMP180;6495;51.808;7.478;2022-10-22T08:54:50;100804.00;;;16.50
12854;BMP180;6495;51.808;7.478;2022-10-22T08:57:41;100812.00;;;16.60
12854;BMP180;6495;51.808;7.478;2022-10-22T09:00:27;100815.00;;;16.60
12854;BMP180;6495;51.808;7.478;2022-10-22T09:03:22;100820.00;;;16.70
12854;BMP180;6495;51.808;7.478;2022-10-22T09:06:04;100821.00;;;16.70
12854;BMP180;6495;51.808;7.478;2022-10-22T09:08:37;100824.00;;;16.80
12854;BMP180;6495;51.808;7.478;2022-10-22T09:11:17;100819.00;;;16.80
12854;BMP180;6495;51.808;7.478;2022-10-22T09:13:48;100820.00;;;16.90
12854;BMP180;6495;51.808;7.478;2022-10-22T09:16:35;100828.00;;;16.90
12854;BMP180;6495;51.808;7.478;2022-10-22T09:19:17;100828.00;;;17.00
12854;BMP180;6495;51.808;7.478;2022-10-22T09:22:00;100844.00;;;17.00
12854;BMP180;6495;51.808;7.478;2022-10-22T09:24:36;100834.00;;;17.00
12854;BMP180;6495;51.808;7.478;2022-10-22T09:27:11;100828.00;;;17.00
12854;BMP180;6495;51.808;7.478;2022-10-22T09:29:41;100829.00;;;17.00
12854;BMP180;6495;51.808;7.478;2022-10-22T09:32:11;100831.00;;;17.00
12854;BMP180;6495;51.808;7.478;2022-10-22T09:34:40;100846.00;;;17.10
12854;BMP180;6495;51.808;7.478;2022-10-22T09:37:10;100839.00;;;17.10
12854;BMP180;6495;51.808;7.478;2022-10-22T09:39:43;100844.00;;;17.10
12854;BMP180;6495;51.808;7.478;2022-10-22T09:42:15;100836.00;;;17.10
12854;BMP180;6495;51.808;7.478;2022-10-22T09:44:51;100844.00;;;17.10
12854;BMP180;6495;51.808;7.478;2022-10-22T09:47:32;100847.00;;;17.20
12854;BMP180;6495;51.808;7.478;2022-10-22T09:50:26;100851.00;;;17.20
12854;BMP180;6495;51.808;7.478;2022-10-22T09:53:00;100858.00;;;17.20
12854;BMP180;6495;51.808;7.478;2022-10-22T09:55:31;100858.00;;;17.20
12854;BMP180;6495;51.808;7.478;2022-10-22T09:57:59;100855.00;;;17.20
12854;BMP180;6495;51.808;7.478;2022-10-22T10:00:29;100865.00;;;17.20
12854;BMP180;6495;51.808;7.478;2022-10-22T10:02:59;100867.00;;;17.20
12854;BMP180;6495;51.808;7.478;2022-10-22T10:05:32;100872.00;;;17.20
12854;BMP180;6495;51.808;7.478;2022-10-22T10:08:11;100878.00;;;17.30
12854;BMP180;6495;51.808;7.478;2022-10-22T10:10:46;100879.00;;;17.30
12854;BMP180;6495;51.808;7.478;2022-10-22T10:13:42;100877.00;;;17.40
12854;BMP180;6495;51.808;7.478;2022-10-22T10:16:25;100877.00;;;17.40
12854;BMP180;6495;51.808;7.478;2022-10-22T10:19:16;100885.00;;;17.40
12854;BMP180;6495;51.808;7.478;2022-10-22T10:21:55;100891.00;;;17.40
12854;BMP180;6495;51.808;7.478;2022-10-22T10:24:33;100896.00;;;17.40
12854;BMP180;6495;51.808;7.478;2022-10-22T10:27:14;100893.00;;;17.50
12854;BMP180;6495;51.808;7.478;2022-10-22T10:29:52;100898.00;;;17.50
12854;BMP180;6495;51.808;7.478;2022-10-22T10:32:46;100903.00;;;17.50
12854;BMP180;6495;51.808;7.478;2022-10-22T10:35:24;100900.00;;;17.50
12854;BMP180;6495;51.808;7.478;2022-10-22T10:38:14;100915.00;;;17.50
12854;BMP180;6495;51.808;7.478;2022-10-22T10:40:50;100905.00;;;17.50
12854;BMP180;6495;51.808;7.478;2022-10-22T10:43:35;100913.00;;;17.50
12854;BMP180;6495;51.808;7.478;2022-10-22T10:46:16;100917.00;;;17.50
12854;BMP180;6495;51.808;7.478;2022-10-22T10:48:53;100914.00;;;17.50
12854;BMP180;6495;51.808;7.478;2022-10-22T10:51:36;100909.00;;;17.50
12854;BMP180;6495;51.808;7.478;2022-10-22T10:54:30;100917.00;;;17.50
12854;BMP180;6495;51.808;7.478;2022-10-22T10:57:08;100919.00;;;17.50
12854;BMP180;6495;51.808;7.478;2022-10-22T10:59:59;100917.00;;;17.50
12854;BMP180;6495;51.808;7.478;2022-10-22T11:03:34;100914.00;;;17.50
12854;BMP180;6495;51.808;7.478;2022-10-22T11:06:10;100914.00;;;17.50
12854;BMP180;6495;51.808;7.478;2022-10-22T11:08:45;100906.00;;;17.50
12854;BMP180;6495;51.808;7.478;2022-10-22T11:11:20;100909.00;;;17.50
12854;BMP180;6495;51.808;7.478;2022-10-22T11:13:55;100909.00;;;17.50
12854;BMP180;6495;51.808;7.478;2022-10-22T11:16:31;100907.00;;;17.60
12854;BMP180;6495;51.808;7.478;2022-10-22T11:19:05;100922.00;;;17.60
12854;BMP180;6495;51.808;7.478;2022-10-22T11:21:41;100914.00;;;17.60
12854;BMP180;6495;51.808;7.478;2022-10-22T11:24:22;100910.00;;;17.70
12854;BMP180;6495;51.808;7.478;2022-10-22T11:26:58;100922.00;;;17.70
12854;BMP180;6495;51.808;7.478;2022-10-22T11:29:33;100929.00;;;17.80
12854;BMP180;6495;51.808;7.478;2022-10-22T11:32:13;100924.00;;;17.80
12854;BMP180;6495;51.808;7.478;2022-10-22T11:34:47;100921.00;;;17.80
12854;BMP180;6495;51.808;7.478;2022-10-22T11:37:17;100930.00;;;17.80
12854;BMP180;6495;51.808;7.478;2022-10-22T11:39:51;100932.00;;;17.80
12854;BMP180;6495;51.808;7.478;2022-10-22T11:42:31;100931.00;;;17.80
12854;BMP180;6495;51.808;7.478;2022-10-22T11:45:03;100932.00;;;17.80
12854;BMP180;6495;51.808;7.478;2022-10-22T11:47:40;100934.00;;;17.80
12854;BMP180;6495;51.808;7.478;2022-10-22T11:50:21;100935.00;;;17.80
12854;BMP180;6495;51.808;7.478;2022-10-22T11:53:01;100940.00;;;17.80
12854;BMP180;6495;51.808;7.478;2022-10-22T11:55:43;100926.00;;;17.80
12854;BMP180;6495;51.808;7.478;2022-10-22T11:58:29;100935.00;;;17.80
12854;BMP180;6495;51.808;7.478;2022-10-22T12:01:26;100936.00;;;17.80
12854;BMP180;6495;51.808;7.478;2022-10-22T12:04:19;100949.00;;;17.80
12854;BMP180;6495;51.808;7.478;2022-10-22T12:06:58;100948.00;;;17.80
12854;BMP180;6495;51.808;7.478;2022-10-22T12:09:29;100943.00;;;17.80
12854;BMP180;6495;51.808;7.478;2022-10-22T12:12:12;100947.00;;;17.80
12854;BMP180;6495;51.808;7.478;2022-10-22T12:14:53;100947.00;;;17.80
12854;BMP180;6495;51.808;7.478;2022-10-22T12:17:23;100940.00;;;17.80
12854;BMP180;6495;51.808;7.478;2022-10-22T12:20:00;100938.00;;;17.90
12854;BMP180;6495;51.808;7.478;2022-10-22T12:22:32;100939.00;;;17.90
12854;BMP180;6495;51.808;7.478;2022-10-22T12:25:15;100935.00;;;17.90
12854;BMP180;6495;51.808;7.478;2022-10-22T12:27:50;100930.00;;;18.00
12854;BMP180;6495;51.808;7.478;2022-10-22T12:30:22;100934.00;;;18.00
12854;BMP180;6495;51.808;7.478;2022-10-22T12:32:52;100943.00;;;18.10
12854;BMP180;6495;51.808;7.478;2022-10-22T12:35:25;100937.00;;;18.10
12854;BMP180;6495;51.808;7.478;2022-10-22T12:37:56;100936.00;;;18.10
12854;BMP180;6495;51.808;7.478;2022-10-22T12:40:26;100931.00;;;18.00
12854;BMP180;6495;51.808;7.478;2022-10-22T12:42:58;100935.00;;;18.00
12854;BMP180;6495;51.808;7.478;2022-10-22T12:45:30;100934.00;;;18.10
12854;BMP180;6495;51.808;7.478;2022-10-22T12:48:01;100927.00;;;18.00
12854;BMP180;6495;51.808;7.478;2022-10-22T12:50:33;100935.00;;;18.00
12854;BMP180;6495;51.808;7.478;2022-10-22T12:53:04;100923.00;;;18.00
12854;BMP180;6495;51.808;7.478;2022-10-22T12:55:33;100925.00;;;18.00
12854;BMP180;6495;51.808;7.478;2022-10-22T12:58:05;100927.00;;;18.00
12854;BMP180;6495;51.808;7.478;2022-10-22T13:00:34;100936.00;;;18.00
12854;BMP180;6495;51.808;7.478;2022-10-22T13:03:06;100928.00;;;18.00
12854;BMP180;6495;51.808;7.478;2022-10-22T13:05:34;100923.00;;;18.00
12854;BMP180;6495;51.808;7.478;2022-10-22T13:08:09;100931.00;;;18.10
12854;BMP180;6495;51.808;7.478;2022-10-22T13:10:39;100929.00;;;18.10
12854;BMP180;6495;51.808;7.478;2022-10-22T13:13:31;100933.00;;;18.10
12854;BMP180;6495;51.808;7.478;2022-10-22T13:16:19;100930.00;;;18.20
12854;BMP180;6495;51.808;7.478;2022-10-22T13:18:49;100942.00;;;18.20
12854;BMP180;6495;51.808;7.478;2022-10-22T13:21:32;100944.00;;;18.30
12854;BMP180;6495;51.808;7.478;2022-10-22T13:24:03;100936.00;;;18.30
12854;BMP180;6495;51.808;7.478;2022-10-22T13:26:49;100938.00;;;18.30
12854;BMP180;6495;51.808;7.478;2022-10-22T13:29:22;100927.00;;;18.40
12854;BMP180;6495;51.808;7.478;2022-10-22T13:31:52;100938.00;;;18.30
12854;BMP180;6495;51.808;7.478;2022-10-22T13:34:23;100932.00;;;18.40
12854;BMP180;6495;51.808;7.478;2022-10-22T13:36:52;100936.00;;;18.30
12854;BMP180;6495;51.808;7.478;2022-10-22T13:39:22;100940.00;;;18.30
12854;BMP180;6495;51.808;7.478;2022-10-22T13:41:51;100939.00;;;18.30
12854;BMP180;6495;51.808;7.478;2022-10-22T13:44:20;100942.00;;;18.30
12854;BMP180;6495;51.808;7.478;2022-10-22T13:46:48;100950.00;;;18.30
12854;BMP180;6495;51.808;7.478;2022-10-22T13:49:19;100947.00;;;18.30
12854;BMP180;6495;51.808;7.478;2022-10-22T13:51:49;100952.00;;;18.40
12854;BMP180;6495;51.808;7.478;2022-10-22T13:54:21;100947.00;;;18.30
12854;BMP180;6495;51.808;7.478;2022-10-22T13:56:50;100956.00;;;18.30
12854;BMP180;6495;51.808;7.478;2022-10-22T13:59:20;100962.00;;;18.40
12854;BMP180;6495;51.808;7.478;2022-10-22T14:01:50;100963.00;;;18.40
12854;BMP180;6495;51.808;7.478;2022-10-22T14:04:18;100967.00;;;18.30
12854;BMP180;6495;51.808;7.478;2022-10-22T14:06:46;100970.00;;;18.40
12854;BMP180;6495;51.808;7.478;2022-10-22T14:09:15;100958.00;;;18.30
12854;BMP180;6495;51.808;7.478;2022-10-22T14:11:43;100973.00;;;18.40
12854;BMP180;6495;51.808;7.478;2022-10-22T14:14:11;100967.00;;;18.40
12854;BMP180;6495;51.808;7.478;2022-10-22T14:16:44;100969.00;;;18.40
12854;BMP180;6495;51.808;7.478;2022-10-22T14:19:15;100976.00;;;18.40
12854;BMP180;6495;51.808;7.478;2022-10-22T14:21:44;100976.00;;;18.40
12854;BMP180;6495;51.808;7.478;2022-10-22T14:24:12;100972.00;;;18.40
12854;BMP180;6495;51.808;7.478;2022-10-22T14:26:40;100967.00;;;18.40
12854;BMP180;6495;51.808;7.478;2022-10-22T14:29:08;100975.00;;;18.30
12854;BMP180;6495;51.808;7.478;2022-10-22T14:31:41;100980.00;;;18.30
12854;BMP180;6495;51.808;7.478;2022-10-22T14:34:14;100975.00;;;18.30
12854;BMP180;6495;51.808;7.478;2022-10-22T14:36:43;100977.00;;;18.40
12854;BMP180;6495;51.808;7.478;2022-10-22T14:39:11;100985.00;;;18.40
12854;BMP180;6495;51.808;7.478;2022-10-22T14:41:40;100975.00;;;18.40